This is the latest recevied weather packets stored in our database for station/object SQ7FJB-2. If no packets are shown the sender has not sent any weather packets the latest 10 day(s).
| Time | Temp. | Humidity | Pressure | Rain* | Wind** | Luminosity | Snow |
|---|---|---|---|---|---|---|---|
| 1778078542 | 25° C | 40% | 1004.3 hPa | 0 mm | - | - | - |
| 1778077941 | 23.89° C | 41% | 1004.4 hPa | 0 mm | - | - | - |
| 1778077341 | 23.33° C | 44% | 1004.4 hPa | 0 mm | - | - | - |
| 1778076729 | 23.89° C | 43% | 1004.4 hPa | 0 mm | - | - | - |
| 1778076129 | 23.89° C | 42% | 1004.4 hPa | 0 mm | - | - | - |
| 1778075517 | 23.33° C | 42% | 1004.4 hPa | 0 mm | - | - | - |
| 1778074917 | 22.78° C | 45% | 1004.4 hPa | 0 mm | - | - | - |
| 1778074304 | 22.78° C | 44% | 1004.4 hPa | 0 mm | - | - | - |
| 1778073704 | 23.89° C | 41% | 1004.4 hPa | 0 mm | - | - | - |
| 1778073092 | 24.44° C | 40% | 1004.4 hPa | 0 mm | - | - | - |
| 1778072491 | 25° C | 41% | 1004.3 hPa | 0 mm | - | - | - |
| 1778071896 | 24.44° C | 42% | 1004.5 hPa | 0 mm | - | - | - |
| 1778071279 | 23.33° C | 43% | 1004.4 hPa | 0 mm | - | - | - |
| 1778070666 | 23.89° C | 44% | 1004.5 hPa | 0 mm | - | - | - |
| 1778070067 | 23.33° C | 46% | 1004.5 hPa | 0 mm | - | - | - |
| 1778069467 | 23.33° C | 43% | 1004.6 hPa | 0 mm | - | - | - |
| 1778068854 | 23.89° C | 44% | 1004.5 hPa | 0 mm | - | - | - |
| 1778068254 | 23.89° C | 46% | 1004.5 hPa | 0 mm | - | - | - |
| 1778067654 | 22.78° C | 47% | 1004.6 hPa | 0 mm | - | - | - |
| 1778067042 | 23.89° C | 45% | 1004.7 hPa | 0 mm | - | - | - |
| 1778066441 | 22.78° C | 47% | 1004.6 hPa | 0 mm | - | - | - |
| 1778065841 | 22.78° C | 49% | 1004.7 hPa | 0 mm | - | - | - |
| 1778065229 | 22.78° C | 49% | 1004.8 hPa | 0 mm | - | - | - |
| 1778064629 | 22.22° C | 49% | 1004.7 hPa | 0 mm | - | - | - |
| 1778064017 | 21.11° C | 52% | 1004.8 hPa | 0 mm | - | - | - |
* Rain latest hour (hover to see other rain measurements)
** Current wind speed in m/s (hover to see current wind gust speed)